sensor_id;sensor_type;location;lat;lon;timestamp;P1;P2;P0
55459;PMS5003;41326;45.302;-122.946;2023-10-19T00:01:17;4;3;
55459;PMS5003;41326;45.302;-122.946;2023-10-19T00:03:48;6;5;
55459;PMS5003;41326;45.302;-122.946;2023-10-19T00:06:18;9;6;
55459;PMS5003;41326;45.302;-122.946;2023-10-19T00:08:49;5;5;
55459;PMS5003;41326;45.302;-122.946;2023-10-19T00:11:19;4;4;
55459;PMS5003;41326;45.302;-122.946;2023-10-19T00:13:49;7;4;
55459;PMS5003;41326;45.302;-122.946;2023-10-19T00:16:19;4;4;
55459;PMS5003;41326;45.302;-122.946;2023-10-19T00:18:50;5;5;
55459;PMS5003;41326;45.302;-122.946;2023-10-19T00:21:20;7;5;
55459;PMS5003;41326;45.302;-122.946;2023-10-19T00:23:51;7;7;
55459;PMS5003;41326;45.302;-122.946;2023-10-19T00:26:21;6;6;
55459;PMS5003;41326;45.302;-122.946;2023-10-19T00:28:53;8;5;
55459;PMS5003;41326;45.302;-122.946;2023-10-19T00:31:21;6;5;
55459;PMS5003;41326;45.302;-122.946;2023-10-19T00:33:52;6;6;
55459;PMS5003;41326;45.302;-122.946;2023-10-19T00:36:22;6;5;
55459;PMS5003;41326;45.302;-122.946;2023-10-19T00:38:52;7;6;
55459;PMS5003;41326;45.302;-122.946;2023-10-19T00:42:35;4;4;
55459;PMS5003;41326;45.302;-122.946;2023-10-19T00:45:06;4;3;
55459;PMS5003;41326;45.302;-122.946;2023-10-19T00:47:36;9;3;
55459;PMS5003;41326;45.302;-122.946;2023-10-19T00:50:06;3;3;
55459;PMS5003;41326;45.302;-122.946;2023-10-19T00:52:38;7;6;
55459;PMS5003;41326;45.302;-122.946;2023-10-19T00:55:09;5;5;
55459;PMS5003;41326;45.302;-122.946;2023-10-19T00:57:40;3;3;
55459;PMS5003;41326;45.302;-122.946;2023-10-19T01:00:09;3;3;
55459;PMS5003;41326;45.302;-122.946;2023-10-19T01:02:40;1;1;
55459;PMS5003;41326;45.302;-122.946;2023-10-19T01:05:10;4;2;
55459;PMS5003;41326;45.302;-122.946;2023-10-19T01:07:40;3;3;
55459;PMS5003;41326;45.302;-122.946;2023-10-19T01:10:11;4;3;
55459;PMS5003;41326;45.302;-122.946;2023-10-19T01:12:41;2;2;
55459;PMS5003;41326;45.302;-122.946;2023-10-19T01:15:11;2;2;
55459;PMS5003;41326;45.302;-122.946;2023-10-19T01:17:41;3;3;
55459;PMS5003;41326;45.302;-122.946;2023-10-19T01:20:12;2;2;
55459;PMS5003;41326;45.302;-122.946;2023-10-19T01:22:45;4;4;
55459;PMS5003;41326;45.302;-122.946;2023-10-19T01:25:12;3;2;
55459;PMS5003;41326;45.302;-122.946;2023-10-19T01:27:43;2;2;
55459;PMS5003;41326;45.302;-122.946;2023-10-19T01:30:13;1;1;
55459;PMS5003;41326;45.302;-122.946;2023-10-19T01:32:43;5;2;
55459;PMS5003;41326;45.302;-122.946;2023-10-19T01:35:13;2;2;
55459;PMS5003;41326;45.302;-122.946;2023-10-19T01:37:43;2;2;
55459;PMS5003;41326;45.302;-122.946;2023-10-19T01:40:14;2;2;
55459;PMS5003;41326;45.302;-122.946;2023-10-19T01:42:44;3;3;
55459;PMS5003;41326;45.302;-122.946;2023-10-19T01:45:15;1;1;
55459;PMS5003;41326;45.302;-122.946;2023-10-19T01:47:45;4;3;
55459;PMS5003;41326;45.302;-122.946;2023-10-19T01:50:15;2;2;
55459;PMS5003;41326;45.302;-122.946;2023-10-19T01:52:45;2;2;
55459;PMS5003;41326;45.302;-122.946;2023-10-19T01:55:15;5;4;
55459;PMS5003;41326;45.302;-122.946;2023-10-19T01:57:46;2;2;
55459;PMS5003;41326;45.302;-122.946;2023-10-19T02:00:16;2;2;
55459;PMS5003;41326;45.302;-122.946;2023-10-19T02:02:46;3;3;
55459;PMS5003;41326;45.302;-122.946;2023-10-19T02:05:16;2;2;
55459;PMS5003;41326;45.302;-122.946;2023-10-19T02:07:47;1;1;
55459;PMS5003;41326;45.302;-122.946;2023-10-19T02:10:17;25;21;
55459;PMS5003;41326;45.302;-122.946;2023-10-19T02:12:47;39;28;
55459;PMS5003;41326;45.302;-122.946;2023-10-19T02:15:17;33;23;
55459;PMS5003;41326;45.302;-122.946;2023-10-19T02:17:48;21;18;
55459;PMS5003;41326;45.302;-122.946;2023-10-19T02:20:18;22;15;
55459;PMS5003;41326;45.302;-122.946;2023-10-19T02:22:48;23;15;
55459;PMS5003;41326;45.302;-122.946;2023-10-19T02:25:18;13;13;
55459;PMS5003;41326;45.302;-122.946;2023-10-19T02:27:49;17;10;
55459;PMS5003;41326;45.302;-122.946;2023-10-19T02:30:19;10;9;
55459;PMS5003;41326;45.302;-122.946;2023-10-19T02:32:49;11;9;
55459;PMS5003;41326;45.302;-122.946;2023-10-19T02:35:19;10;7;
55459;PMS5003;41326;45.302;-122.946;2023-10-19T02:37:49;8;7;
55459;PMS5003;41326;45.302;-122.946;2023-10-19T02:40:20;7;6;
55459;PMS5003;41326;45.302;-122.946;2023-10-19T02:42:51;6;6;
55459;PMS5003;41326;45.302;-122.946;2023-10-19T02:45:21;8;5;
55459;PMS5003;41326;45.302;-122.946;2023-10-19T02:47:51;5;5;
55459;PMS5003;41326;45.302;-122.946;2023-10-19T02:50:22;4;4;
55459;PMS5003;41326;45.302;-122.946;2023-10-19T02:52:52;8;6;
55459;PMS5003;41326;45.302;-122.946;2023-10-19T02:55:22;7;5;
55459;PMS5003;41326;45.302;-122.946;2023-10-19T02:57:53;4;3;
55459;PMS5003;41326;45.302;-122.946;2023-10-19T03:00:23;3;3;
55459;PMS5003;41326;45.302;-122.946;2023-10-19T03:02:54;4;3;
55459;PMS5003;41326;45.302;-122.946;2023-10-19T03:05:23;1;1;
55459;PMS5003;41326;45.302;-122.946;2023-10-19T03:07:54;2;2;
55459;PMS5003;41326;45.302;-122.946;2023-10-19T03:10:24;3;1;
55459;PMS5003;41326;45.302;-122.946;2023-10-19T03:12:55;4;4;
55459;PMS5003;41326;45.302;-122.946;2023-10-19T03:15:25;2;1;
55459;PMS5003;41326;45.302;-122.946;2023-10-19T03:17:55;3;2;
55459;PMS5003;41326;45.302;-122.946;2023-10-19T03:20:25;1;1;
55459;PMS5003;41326;45.302;-122.946;2023-10-19T03:22:55;1;1;
55459;PMS5003;41326;45.302;-122.946;2023-10-19T03:25:26;3;2;
55459;PMS5003;41326;45.302;-122.946;2023-10-19T03:27:56;0;0;
55459;PMS5003;41326;45.302;-122.946;2023-10-19T03:30:26;2;0;
55459;PMS5003;41326;45.302;-122.946;2023-10-19T03:32:56;0;0;
55459;PMS5003;41326;45.302;-122.946;2023-10-19T03:35:27;1;1;
55459;PMS5003;41326;45.302;-122.946;2023-10-19T03:37:57;1;1;
55459;PMS5003;41326;45.302;-122.946;2023-10-19T03:40:27;2;1;
55459;PMS5003;41326;45.302;-122.946;2023-10-19T03:42:58;1;1;
55459;PMS5003;41326;45.302;-122.946;2023-10-19T03:45:28;2;2;
55459;PMS5003;41326;45.302;-122.946;2023-10-19T03:47:59;2;1;
55459;PMS5003;41326;45.302;-122.946;2023-10-19T03:50:29;0;0;
55459;PMS5003;41326;45.302;-122.946;2023-10-19T03:52:59;3;3;
55459;PMS5003;41326;45.302;-122.946;2023-10-19T03:55:29;1;1;
55459;PMS5003;41326;45.302;-122.946;2023-10-19T03:58:00;0;0;
55459;PMS5003;41326;45.302;-122.946;2023-10-19T04:00:30;1;0;
55459;PMS5003;41326;45.302;-122.946;2023-10-19T04:03:00;1;1;
55459;PMS5003;41326;45.302;-122.946;2023-10-19T04:05:30;1;1;
55459;PMS5003;41326;45.302;-122.946;2023-10-19T04:08:01;2;1;
55459;PMS5003;41326;45.302;-122.946;2023-10-19T04:10:31;1;1;
55459;PMS5003;41326;45.302;-122.946;2023-10-19T04:13:01;1;1;
55459;PMS5003;41326;45.302;-122.946;2023-10-19T04:15:32;1;0;
55459;PMS5003;41326;45.302;-122.946;2023-10-19T04:18:03;1;1;
55459;PMS5003;41326;45.302;-122.946;2023-10-19T04:20:32;2;1;
55459;PMS5003;41326;45.302;-122.946;2023-10-19T04:23:03;1;1;
55459;PMS5003;41326;45.302;-122.946;2023-10-19T04:25:33;1;1;
55459;PMS5003;41326;45.302;-122.946;2023-10-19T04:28:04;0;0;
55459;PMS5003;41326;45.302;-122.946;2023-10-19T04:30:33;0;0;
55459;PMS5003;41326;45.302;-122.946;2023-10-19T04:33:04;0;0;
55459;PMS5003;41326;45.302;-122.946;2023-10-19T04:35:34;0;0;
55459;PMS5003;41326;45.302;-122.946;2023-10-19T04:38:05;1;1;
55459;PMS5003;41326;45.302;-122.946;2023-10-19T04:40:35;0;0;
55459;PMS5003;41326;45.302;-122.946;2023-10-19T04:43:05;1;1;
55459;PMS5003;41326;45.302;-122.946;2023-10-19T04:45:35;1;0;
55459;PMS5003;41326;45.302;-122.946;2023-10-19T04:48:06;0;0;
55459;PMS5003;41326;45.302;-122.946;2023-10-19T04:50:36;1;1;
55459;PMS5003;41326;45.302;-122.946;2023-10-19T04:53:06;1;0;
55459;PMS5003;41326;45.302;-122.946;2023-10-19T04:55:36;2;1;
55459;PMS5003;41326;45.302;-122.946;2023-10-19T04:58:07;1;1;
55459;PMS5003;41326;45.302;-122.946;2023-10-19T05:00:37;3;1;
55459;PMS5003;41326;45.302;-122.946;2023-10-19T05:03:07;2;2;
55459;PMS5003;41326;45.302;-122.946;2023-10-19T05:05:37;1;1;
55459;PMS5003;41326;45.302;-122.946;2023-10-19T05:08:08;1;1;
55459;PMS5003;41326;45.302;-122.946;2023-10-19T05:10:38;2;1;
55459;PMS5003;41326;45.302;-122.946;2023-10-19T05:13:09;4;2;
55459;PMS5003;41326;45.302;-122.946;2023-10-19T05:15:39;2;0;
55459;PMS5003;41326;45.302;-122.946;2023-10-19T05:18:09;2;2;
55459;PMS5003;41326;45.302;-122.946;2023-10-19T05:20:39;5;2;
55459;PMS5003;41326;45.302;-122.946;2023-10-19T05:23:10;1;1;
55459;PMS5003;41326;45.302;-122.946;2023-10-19T05:25:40;2;2;
55459;PMS5003;41326;45.302;-122.946;2023-10-19T05:28:12;2;2;
55459;PMS5003;41326;45.302;-122.946;2023-10-19T05:30:41;2;2;
55459;PMS5003;41326;45.302;-122.946;2023-10-19T05:33:12;1;1;
55459;PMS5003;41326;45.302;-122.946;2023-10-19T05:35:42;3;2;
55459;PMS5003;41326;45.302;-122.946;2023-10-19T05:38:12;3;3;
55459;PMS5003;41326;45.302;-122.946;2023-10-19T05:40:43;2;1;
55459;PMS5003;41326;45.302;-122.946;2023-10-19T05:43:14;2;2;
55459;PMS5003;41326;45.302;-122.946;2023-10-19T05:45:44;2;2;
55459;PMS5003;41326;45.302;-122.946;2023-10-19T05:48:14;2;1;
55459;PMS5003;41326;45.302;-122.946;2023-10-19T05:50:44;1;1;
55459;PMS5003;41326;45.302;-122.946;2023-10-19T05:53:14;2;2;
55459;PMS5003;41326;45.302;-122.946;2023-10-19T05:55:44;3;1;
55459;PMS5003;41326;45.302;-122.946;2023-10-19T05:58:15;2;1;
55459;PMS5003;41326;45.302;-122.946;2023-10-19T06:00:45;2;2;
55459;PMS5003;41326;45.302;-122.946;2023-10-19T06:03:16;2;2;
55459;PMS5003;41326;45.302;-122.946;2023-10-19T06:05:46;0;0;
55459;PMS5003;41326;45.302;-122.946;2023-10-19T06:08:16;1;1;
55459;PMS5003;41326;45.302;-122.946;2023-10-19T06:10:50;2;1;
55459;PMS5003;41326;45.302;-122.946;2023-10-19T06:13:17;2;0;
55459;PMS5003;41326;45.302;-122.946;2023-10-19T06:15:48;1;1;
55459;PMS5003;41326;45.302;-122.946;2023-10-19T06:18:18;3;2;
55459;PMS5003;41326;45.302;-122.946;2023-10-19T06:20:48;0;0;
55459;PMS5003;41326;45.302;-122.946;2023-10-19T06:23:18;1;1;
55459;PMS5003;41326;45.302;-122.946;2023-10-19T06:25:48;1;0;
55459;PMS5003;41326;45.302;-122.946;2023-10-19T06:28:18;1;1;
55459;PMS5003;41326;45.302;-122.946;2023-10-19T06:30:48;1;1;
55459;PMS5003;41326;45.302;-122.946;2023-10-19T06:33:18;1;1;
55459;PMS5003;41326;45.302;-122.946;2023-10-19T06:35:49;1;1;
55459;PMS5003;41326;45.302;-122.946;2023-10-19T06:38:19;0;0;
55459;PMS5003;41326;45.302;-122.946;2023-10-19T06:40:54;1;1;
55459;PMS5003;41326;45.302;-122.946;2023-10-19T06:43:19;1;0;
55459;PMS5003;41326;45.302;-122.946;2023-10-19T06:45:50;2;1;
55459;PMS5003;41326;45.302;-122.946;2023-10-19T06:48:20;2;1;
55459;PMS5003;41326;45.302;-122.946;2023-10-19T06:50:51;3;1;
55459;PMS5003;41326;45.302;-122.946;2023-10-19T06:53:20;0;0;
55459;PMS5003;41326;45.302;-122.946;2023-10-19T06:55:51;1;0;
55459;PMS5003;41326;45.302;-122.946;2023-10-19T06:58:21;2;1;
55459;PMS5003;41326;45.302;-122.946;2023-10-19T07:00:52;0;0;
55459;PMS5003;41326;45.302;-122.946;2023-10-19T07:03:22;2;1;
55459;PMS5003;41326;45.302;-122.946;2023-10-19T07:05:52;1;0;
55459;PMS5003;41326;45.302;-122.946;2023-10-19T07:08:22;3;1;
55459;PMS5003;41326;45.302;-122.946;2023-10-19T07:10:53;0;0;
55459;PMS5003;41326;45.302;-122.946;2023-10-19T07:13:23;3;3;
55459;PMS5003;41326;45.302;-122.946;2023-10-19T07:15:53;0;0;
55459;PMS5003;41326;45.302;-122.946;2023-10-19T07:18:24;1;1;
55459;PMS5003;41326;45.302;-122.946;2023-10-19T07:20:54;0;0;
55459;PMS5003;41326;45.302;-122.946;2023-10-19T07:23:24;1;0;
55459;PMS5003;41326;45.302;-122.946;2023-10-19T07:25:54;1;1;
55459;PMS5003;41326;45.302;-122.946;2023-10-19T07:28:25;1;1;
55459;PMS5003;41326;45.302;-122.946;2023-10-19T07:30:55;0;0;
55459;PMS5003;41326;45.302;-122.946;2023-10-19T07:33:25;0;0;
55459;PMS5003;41326;45.302;-122.946;2023-10-19T07:35:56;1;1;
55459;PMS5003;41326;45.302;-122.946;2023-10-19T07:38:26;0;0;
55459;PMS5003;41326;45.302;-122.946;2023-10-19T07:40:56;1;1;
55459;PMS5003;41326;45.302;-122.946;2023-10-19T07:43:27;0;0;
55459;PMS5003;41326;45.302;-122.946;2023-10-19T07:45:57;2;1;
55459;PMS5003;41326;45.302;-122.946;2023-10-19T07:48:27;0;0;
55459;PMS5003;41326;45.302;-122.946;2023-10-19T07:50:57;3;0;
55459;PMS5003;41326;45.302;-122.946;2023-10-19T07:53:28;1;1;
55459;PMS5003;41326;45.302;-122.946;2023-10-19T07:55:58;1;0;
55459;PMS5003;41326;45.302;-122.946;2023-10-19T07:58:28;0;0;
55459;PMS5003;41326;45.302;-122.946;2023-10-19T08:00:58;2;1;
55459;PMS5003;41326;45.302;-122.946;2023-10-19T08:03:28;0;0;
55459;PMS5003;41326;45.302;-122.946;2023-10-19T08:05:59;1;0;
55459;PMS5003;41326;45.302;-122.946;2023-10-19T08:08:29;2;2;
55459;PMS5003;41326;45.302;-122.946;2023-10-19T08:10:59;1;1;
55459;PMS5003;41326;45.302;-122.946;2023-10-19T08:13:30;2;1;
55459;PMS5003;41326;45.302;-122.946;2023-10-19T08:16:00;4;0;
55459;PMS5003;41326;45.302;-122.946;2023-10-19T08:18:31;1;1;
55459;PMS5003;41326;45.302;-122.946;2023-10-19T08:21:01;0;0;
55459;PMS5003;41326;45.302;-122.946;2023-10-19T08:23:31;1;1;
55459;PMS5003;41326;45.302;-122.946;2023-10-19T08:26:03;1;1;
55459;PMS5003;41326;45.302;-122.946;2023-10-19T08:28:32;1;1;
55459;PMS5003;41326;45.302;-122.946;2023-10-19T08:31:02;1;1;
55459;PMS5003;41326;45.302;-122.946;2023-10-19T08:33:33;1;1;
55459;PMS5003;41326;45.302;-122.946;2023-10-19T08:36:02;1;1;
55459;PMS5003;41326;45.302;-122.946;2023-10-19T08:38:33;2;1;
55459;PMS5003;41326;45.302;-122.946;2023-10-19T08:41:03;1;1;
55459;PMS5003;41326;45.302;-122.946;2023-10-19T08:43:33;0;0;
55459;PMS5003;41326;45.302;-122.946;2023-10-19T08:46:04;1;1;
55459;PMS5003;41326;45.302;-122.946;2023-10-19T08:48:35;0;0;
55459;PMS5003;41326;45.302;-122.946;2023-10-19T08:51:08;1;1;
55459;PMS5003;41326;45.302;-122.946;2023-10-19T08:53:34;1;1;
55459;PMS5003;41326;45.302;-122.946;2023-10-19T08:56:04;0;0;
55459;PMS5003;41326;45.302;-122.946;2023-10-19T08:58:34;0;0;
55459;PMS5003;41326;45.302;-122.946;2023-10-19T09:01:04;1;1;
55459;PMS5003;41326;45.302;-122.946;2023-10-19T09:03:34;0;0;
55459;PMS5003;41326;45.302;-122.946;2023-10-19T09:06:05;0;0;
55459;PMS5003;41326;45.302;-122.946;2023-10-19T09:08:35;0;0;
55459;PMS5003;41326;45.302;-122.946;2023-10-19T09:11:06;1;1;
55459;PMS5003;41326;45.302;-122.946;2023-10-19T09:13:43;1;1;
55459;PMS5003;41326;45.302;-122.946;2023-10-19T09:16:05;0;0;
55459;PMS5003;41326;45.302;-122.946;2023-10-19T09:18:36;2;1;
55459;PMS5003;41326;45.302;-122.946;2023-10-19T09:21:06;0;0;
55459;PMS5003;41326;45.302;-122.946;2023-10-19T09:23:36;0;0;
55459;PMS5003;41326;45.302;-122.946;2023-10-19T09:26:06;0;0;
55459;PMS5003;41326;45.302;-122.946;2023-10-19T09:28:36;1;0;
55459;PMS5003;41326;45.302;-122.946;2023-10-19T09:31:06;3;0;
55459;PMS5003;41326;45.302;-122.946;2023-10-19T09:33:37;1;0;
55459;PMS5003;41326;45.302;-122.946;2023-10-19T09:36:07;1;1;
55459;PMS5003;41326;45.302;-122.946;2023-10-19T09:38:37;0;0;
55459;PMS5003;41326;45.302;-122.946;2023-10-19T09:41:07;1;0;
55459;PMS5003;41326;45.302;-122.946;2023-10-19T09:43:40;0;0;
55459;PMS5003;41326;45.302;-122.946;2023-10-19T09:46:09;3;0;
55459;PMS5003;41326;45.302;-122.946;2023-10-19T09:48:39;2;0;
55459;PMS5003;41326;45.302;-122.946;2023-10-19T09:51:09;1;1;
55459;PMS5003;41326;45.302;-122.946;2023-10-19T09:53:39;0;0;
55459;PMS5003;41326;45.302;-122.946;2023-10-19T09:56:10;0;0;
55459;PMS5003;41326;45.302;-122.946;2023-10-19T09:58:40;1;1;
55459;PMS5003;41326;45.302;-122.946;2023-10-19T10:01:10;0;0;
55459;PMS5003;41326;45.302;-122.946;2023-10-19T10:06:11;0;0;
55459;PMS5003;41326;45.302;-122.946;2023-10-19T10:08:42;0;0;
55459;PMS5003;41326;45.302;-122.946;2023-10-19T10:11:16;0;0;
55459;PMS5003;41326;45.302;-122.946;2023-10-19T10:13:42;0;0;
55459;PMS5003;41326;45.302;-122.946;2023-10-19T10:16:13;0;0;
55459;PMS5003;41326;45.302;-122.946;2023-10-19T10:18:42;2;1;
55459;PMS5003;41326;45.302;-122.946;2023-10-19T10:21:14;0;0;
55459;PMS5003;41326;45.302;-122.946;2023-10-19T10:23:44;1;1;
55459;PMS5003;41326;45.302;-122.946;2023-10-19T10:26:14;0;0;
55459;PMS5003;41326;45.302;-122.946;2023-10-19T10:28:46;1;1;
55459;PMS5003;41326;45.302;-122.946;2023-10-19T10:31:14;0;0;
55459;PMS5003;41326;45.302;-122.946;2023-10-19T10:33:44;0;0;
55459;PMS5003;41326;45.302;-122.946;2023-10-19T10:36:14;1;1;
55459;PMS5003;41326;45.302;-122.946;2023-10-19T10:38:45;0;0;
55459;PMS5003;41326;45.302;-122.946;2023-10-19T10:43:50;1;1;
55459;PMS5003;41326;45.302;-122.946;2023-10-19T10:46:15;1;1;
55459;PMS5003;41326;45.302;-122.946;2023-10-19T10:48:45;1;1;
55459;PMS5003;41326;45.302;-122.946;2023-10-19T10:51:16;0;0;
55459;PMS5003;41326;45.302;-122.946;2023-10-19T10:53:48;1;1;
55459;PMS5003;41326;45.302;-122.946;2023-10-19T10:56:16;1;1;
55459;PMS5003;41326;45.302;-122.946;2023-10-19T10:58:47;1;1;
55459;PMS5003;41326;45.302;-122.946;2023-10-19T11:03:47;1;1;
55459;PMS5003;41326;45.302;-122.946;2023-10-19T11:06:17;2;0;
55459;PMS5003;41326;45.302;-122.946;2023-10-19T11:08:48;0;0;
55459;PMS5003;41326;45.302;-122.946;2023-10-19T11:11:18;0;0;
55459;PMS5003;41326;45.302;-122.946;2023-10-19T11:13:48;0;0;
55459;PMS5003;41326;45.302;-122.946;2023-10-19T11:18:49;2;0;
55459;PMS5003;41326;45.302;-122.946;2023-10-19T11:21:19;0;0;
55459;PMS5003;41326;45.302;-122.946;2023-10-19T11:23:49;0;0;
55459;PMS5003;41326;45.302;-122.946;2023-10-19T11:26:20;1;0;
55459;PMS5003;41326;45.302;-122.946;2023-10-19T11:31:21;0;0;
55459;PMS5003;41326;45.302;-122.946;2023-10-19T11:33:51;1;1;
55459;PMS5003;41326;45.302;-122.946;2023-10-19T11:36:21;1;0;
55459;PMS5003;41326;45.302;-122.946;2023-10-19T11:38:52;1;0;
55459;PMS5003;41326;45.302;-122.946;2023-10-19T11:42:29;2;1;
55459;PMS5003;41326;45.302;-122.946;2023-10-19T11:45:00;0;0;
55459;PMS5003;41326;45.302;-122.946;2023-10-19T11:47:30;0;0;
55459;PMS5003;41326;45.302;-122.946;2023-10-19T11:50:01;0;0;
55459;PMS5003;41326;45.302;-122.946;2023-10-19T11:52:31;0;0;
55459;PMS5003;41326;45.302;-122.946;2023-10-19T11:55:02;0;0;
55459;PMS5003;41326;45.302;-122.946;2023-10-19T11:57:32;1;0;
55459;PMS5003;41326;45.302;-122.946;2023-10-19T12:00:02;2;2;
55459;PMS5003;41326;45.302;-122.946;2023-10-19T12:02:32;0;0;
55459;PMS5003;41326;45.302;-122.946;2023-10-19T12:05:03;1;1;
55459;PMS5003;41326;45.302;-122.946;2023-10-19T12:07:33;0;0;
55459;PMS5003;41326;45.302;-122.946;2023-10-19T12:10:03;2;1;
55459;PMS5003;41326;45.302;-122.946;2023-10-19T12:12:33;0;0;
55459;PMS5003;41326;45.302;-122.946;2023-10-19T12:15:03;1;1;
55459;PMS5003;41326;45.302;-122.946;2023-10-19T12:17:34;1;1;
55459;PMS5003;41326;45.302;-122.946;2023-10-19T12:20:04;1;1;
55459;PMS5003;41326;45.302;-122.946;2023-10-19T12:22:41;0;0;
55459;PMS5003;41326;45.302;-122.946;2023-10-19T12:25:12;0;0;
55459;PMS5003;41326;45.302;-122.946;2023-10-19T12:27:42;1;1;
55459;PMS5003;41326;45.302;-122.946;2023-10-19T12:30:12;0;0;
55459;PMS5003;41326;45.302;-122.946;2023-10-19T12:32:43;2;1;
55459;PMS5003;41326;45.302;-122.946;2023-10-19T12:35:13;0;0;
55459;PMS5003;41326;45.302;-122.946;2023-10-19T12:37:43;0;0;
55459;PMS5003;41326;45.302;-122.946;2023-10-19T12:40:13;3;1;
55459;PMS5003;41326;45.302;-122.946;2023-10-19T12:42:43;1;1;
55459;PMS5003;41326;45.302;-122.946;2023-10-19T12:45:13;0;0;
55459;PMS5003;41326;45.302;-122.946;2023-10-19T12:47:44;0;0;
55459;PMS5003;41326;45.302;-122.946;2023-10-19T12:50:14;0;0;
55459;PMS5003;41326;45.302;-122.946;2023-10-19T12:52:45;0;0;
55459;PMS5003;41326;45.302;-122.946;2023-10-19T12:55:15;0;0;
55459;PMS5003;41326;45.302;-122.946;2023-10-19T12:57:46;0;0;
55459;PMS5003;41326;45.302;-122.946;2023-10-19T13:00:16;2;1;
55459;PMS5003;41326;45.302;-122.946;2023-10-19T13:02:47;1;1;
55459;PMS5003;41326;45.302;-122.946;2023-10-19T13:05:17;2;1;
55459;PMS5003;41326;45.302;-122.946;2023-10-19T13:07:47;1;1;
55459;PMS5003;41326;45.302;-122.946;2023-10-19T13:10:17;2;1;
55459;PMS5003;41326;45.302;-122.946;2023-10-19T13:12:47;2;0;
55459;PMS5003;41326;45.302;-122.946;2023-10-19T13:15:18;1;0;
55459;PMS5003;41326;45.302;-122.946;2023-10-19T13:17:48;1;1;
55459;PMS5003;41326;45.302;-122.946;2023-10-19T13:20:18;1;1;
55459;PMS5003;41326;45.302;-122.946;2023-10-19T13:22:49;3;0;
55459;PMS5003;41326;45.302;-122.946;2023-10-19T13:25:19;1;1;
55459;PMS5003;41326;45.302;-122.946;2023-10-19T13:27:49;0;0;
55459;PMS5003;41326;45.302;-122.946;2023-10-19T13:30:19;0;0;
55459;PMS5003;41326;45.302;-122.946;2023-10-19T13:32:50;2;0;
55459;PMS5003;41326;45.302;-122.946;2023-10-19T13:35:20;3;1;
55459;PMS5003;41326;45.302;-122.946;2023-10-19T13:37:50;0;0;
55459;PMS5003;41326;45.302;-122.946;2023-10-19T13:40:20;1;1;
55459;PMS5003;41326;45.302;-122.946;2023-10-19T13:42:52;3;1;
55459;PMS5003;41326;45.302;-122.946;2023-10-19T13:45:22;0;0;
55459;PMS5003;41326;45.302;-122.946;2023-10-19T13:47:51;0;0;
55459;PMS5003;41326;45.302;-122.946;2023-10-19T13:50:22;1;1;
55459;PMS5003;41326;45.302;-122.946;2023-10-19T13:52:52;0;0;
55459;PMS5003;41326;45.302;-122.946;2023-10-19T13:55:22;1;0;
55459;PMS5003;41326;45.302;-122.946;2023-10-19T13:57:52;2;1;
55459;PMS5003;41326;45.302;-122.946;2023-10-19T14:00:23;1;1;
55459;PMS5003;41326;45.302;-122.946;2023-10-19T14:02:53;0;0;
55459;PMS5003;41326;45.302;-122.946;2023-10-19T14:05:23;2;1;
55459;PMS5003;41326;45.302;-122.946;2023-10-19T14:07:54;2;2;
55459;PMS5003;41326;45.302;-122.946;2023-10-19T14:10:24;0;0;
55459;PMS5003;41326;45.302;-122.946;2023-10-19T14:12:56;1;1;
55459;PMS5003;41326;45.302;-122.946;2023-10-19T14:15:24;2;0;
55459;PMS5003;41326;45.302;-122.946;2023-10-19T14:17:55;4;1;
55459;PMS5003;41326;45.302;-122.946;2023-10-19T14:20:25;2;2;
55459;PMS5003;41326;45.302;-122.946;2023-10-19T14:22:55;0;0;
55459;PMS5003;41326;45.302;-122.946;2023-10-19T14:25:25;1;1;
55459;PMS5003;41326;45.302;-122.946;2023-10-19T14:27:56;0;0;
55459;PMS5003;41326;45.302;-122.946;2023-10-19T14:30:27;0;0;
55459;PMS5003;41326;45.302;-122.946;2023-10-19T14:32:57;2;2;
55459;PMS5003;41326;45.302;-122.946;2023-10-19T14:35:27;1;1;
55459;PMS5003;41326;45.302;-122.946;2023-10-19T14:37:58;1;1;
55459;PMS5003;41326;45.302;-122.946;2023-10-19T14:40:27;2;2;
55459;PMS5003;41326;45.302;-122.946;2023-10-19T14:42:58;2;2;
55459;PMS5003;41326;45.302;-122.946;2023-10-19T14:45:28;1;1;
55459;PMS5003;41326;45.302;-122.946;2023-10-19T14:47:58;2;1;
55459;PMS5003;41326;45.302;-122.946;2023-10-19T14:50:29;5;0;
55459;PMS5003;41326;45.302;-122.946;2023-10-19T14:53:00;1;1;
55459;PMS5003;41326;45.302;-122.946;2023-10-19T14:55:30;3;1;
55459;PMS5003;41326;45.302;-122.946;2023-10-19T14:58:01;1;0;
55459;PMS5003;41326;45.302;-122.946;2023-10-19T15:00:31;0;0;
55459;PMS5003;41326;45.302;-122.946;2023-10-19T15:03:02;1;1;
55459;PMS5003;41326;45.302;-122.946;2023-10-19T15:05:31;1;1;
55459;PMS5003;41326;45.302;-122.946;2023-10-19T15:08:02;3;1;
55459;PMS5003;41326;45.302;-122.946;2023-10-19T15:10:32;0;0;
55459;PMS5003;41326;45.302;-122.946;2023-10-19T15:13:02;0;0;
55459;PMS5003;41326;45.302;-122.946;2023-10-19T15:15:33;1;1;
55459;PMS5003;41326;45.302;-122.946;2023-10-19T15:18:04;1;1;
55459;PMS5003;41326;45.302;-122.946;2023-10-19T15:20:33;2;2;
55459;PMS5003;41326;45.302;-122.946;2023-10-19T15:23:04;0;0;
55459;PMS5003;41326;45.302;-122.946;2023-10-19T15:25:34;1;1;
55459;PMS5003;41326;45.302;-122.946;2023-10-19T15:28:04;3;1;
55459;PMS5003;41326;45.302;-122.946;2023-10-19T15:30:34;4;1;
55459;PMS5003;41326;45.302;-122.946;2023-10-19T15:33:05;0;0;
55459;PMS5003;41326;45.302;-122.946;2023-10-19T15:35:34;2;1;
55459;PMS5003;41326;45.302;-122.946;2023-10-19T15:38:05;1;1;
55459;PMS5003;41326;45.302;-122.946;2023-10-19T15:40:35;2;1;
55459;PMS5003;41326;45.302;-122.946;2023-10-19T15:43:05;0;0;
55459;PMS5003;41326;45.302;-122.946;2023-10-19T15:45:35;0;0;
55459;PMS5003;41326;45.302;-122.946;2023-10-19T15:48:06;1;1;
55459;PMS5003;41326;45.302;-122.946;2023-10-19T15:50:38;0;0;
55459;PMS5003;41326;45.302;-122.946;2023-10-19T15:53:08;1;1;
55459;PMS5003;41326;45.302;-122.946;2023-10-19T15:55:37;0;0;
55459;PMS5003;41326;45.302;-122.946;2023-10-19T15:58:07;0;0;
55459;PMS5003;41326;45.302;-122.946;2023-10-19T16:00:37;1;0;
55459;PMS5003;41326;45.302;-122.946;2023-10-19T16:03:08;0;0;
55459;PMS5003;41326;45.302;-122.946;2023-10-19T16:05:38;0;0;
55459;PMS5003;41326;45.302;-122.946;2023-10-19T16:08:08;6;2;
55459;PMS5003;41326;45.302;-122.946;2023-10-19T16:10:38;0;0;
55459;PMS5003;41326;45.302;-122.946;2023-10-19T16:13:08;0;0;
55459;PMS5003;41326;45.302;-122.946;2023-10-19T16:15:39;0;0;
55459;PMS5003;41326;45.302;-122.946;2023-10-19T16:18:09;1;1;
55459;PMS5003;41326;45.302;-122.946;2023-10-19T16:20:39;0;0;
55459;PMS5003;41326;45.302;-122.946;2023-10-19T16:23:10;0;0;
55459;PMS5003;41326;45.302;-122.946;2023-10-19T16:25:40;2;0;
55459;PMS5003;41326;45.302;-122.946;2023-10-19T16:28:10;0;0;
55459;PMS5003;41326;45.302;-122.946;2023-10-19T16:30:40;0;0;
55459;PMS5003;41326;45.302;-122.946;2023-10-19T16:33:11;1;0;
55459;PMS5003;41326;45.302;-122.946;2023-10-19T16:35:41;0;0;